Time,TemperatureF,DewpointF,PressureIn,WindDirection,WindDirectionDegrees,WindSpeedMPH,WindSpeedGustMPH,Humidity,HourlyPrecipIn,Conditions,Clouds,dailyrainin,SoftwareType,DateUTC
2013-06-11 00:03:00,59.0,58.0,-100.00,East,96,12.0,12.0,98,-99.99,,,-99.99,,2013-06-11 04:03:00,
2013-06-11 00:13:00,59.0,58.0,-100.00,East,96,12.0,12.0,98,-99.99,,,-99.99,,2013-06-11 04:13:00,
2013-06-11 00:23:00,59.0,58.0,-100.00,East,90,10.0,10.0,98,-99.99,,,-99.99,,2013-06-11 04:23:00,
2013-06-11 00:33:00,59.0,58.0,-100.00,East,90,9.0,9.0,98,-99.99,,,-99.99,,2013-06-11 04:33:00,
2013-06-11 00:42:00,59.0,58.0,-100.00,East,90,9.0,9.0,98,-99.99,,,-99.99,,2013-06-11 04:42:00,
2013-06-11 00:52:00,59.0,58.0,-100.00,East,90,9.0,9.0,98,-99.99,,,-99.99,,2013-06-11 04:52:00,
2013-06-11 01:02:00,59.0,58.0,-100.00,East,90,9.0,9.0,98,-99.99,,,-99.99,,2013-06-11 05:02:00,
2013-06-11 01:12:00,59.0,58.0,-100.00,East,90,9.0,9.0,98,-99.99,,,-99.99,,2013-06-11 05:12:00,
2013-06-11 01:22:00,59.0,58.0,-100.00,East,92,9.0,9.0,98,-99.99,,,-99.99,,2013-06-11 05:22:00,
2013-06-11 01:32:00,59.0,58.0,-100.00,East,92,9.0,9.0,98,-99.99,,,-99.99,,2013-06-11 05:32:00,
2013-06-11 01:42:00,59.0,58.0,-100.00,East,92,9.0,9.0,98,-99.99,,,-99.99,,2013-06-11 05:42:00,
2013-06-11 01:52:00,59.0,58.0,-100.00,East,92,9.0,9.0,98,-99.99,,,-99.99,,2013-06-11 05:52:00,
2013-06-11 02:02:00,59.0,58.0,-100.00,East,92,9.0,9.0,98,-99.99,,,-99.99,,2013-06-11 06:02:00,
2013-06-11 02:12:00,59.0,58.0,-100.00,East,92,9.0,9.0,98,-99.99,,,-99.99,,2013-06-11 06:12:00,
2013-06-11 02:22:00,59.0,58.0,-100.00,East,90,10.0,10.0,98,-99.99,,,-99.99,,2013-06-11 06:22:00,
2013-06-11 02:32:00,59.0,57.0,-100.00,East,94,10.0,-999.0,93,-99.99,,,-99.99,,2013-06-11 06:32:00,
2013-06-11 02:42:00,59.0,57.0,-100.00,East,94,10.0,-999.0,93,-99.99,,,-99.99,,2013-06-11 06:42:00,
2013-06-11 02:52:00,59.0,57.0,-100.00,East,94,10.0,-999.0,93,-99.99,,,-99.99,,2013-06-11 06:52:00,
2013-06-11 03:02:00,59.0,57.0,-100.00,East,94,10.0,-999.0,93,-99.99,,,-99.99,,2013-06-11 07:02:00,
2013-06-11 03:13:00,59.0,57.0,-100.00,East,94,10.0,-999.0,93,-99.99,,,-99.99,,2013-06-11 07:13:00,
2013-06-11 03:22:00,59.0,56.0,-100.00,ENE,78,7.0,-999.0,90,-99.99,,,-99.99,,2013-06-11 07:22:00,
2013-06-11 03:32:00,59.0,57.0,-100.00,East,86,8.0,-999.0,93,-99.99,,,-99.99,,2013-06-11 07:32:00,
2013-06-11 03:42:00,59.0,57.0,-100.00,East,86,8.0,-999.0,93,-99.99,,,-99.99,,2013-06-11 07:42:00,
2013-06-11 03:52:00,59.0,57.0,-100.00,East,86,8.0,-999.0,93,-99.99,,,-99.99,,2013-06-11 07:52:00,
2013-06-11 04:03:00,59.0,57.0,-100.00,East,86,8.0,-999.0,93,-99.99,,,-99.99,,2013-06-11 08:03:00,
2013-06-11 04:12:00,59.0,57.0,-100.00,East,86,8.0,-999.0,93,-99.99,,,-99.99,,2013-06-11 08:12:00,
2013-06-11 04:22:00,59.0,56.0,-100.00,East,84,12.0,-999.0,90,-99.99,,,-99.99,,2013-06-11 08:22:00,
2013-06-11 04:32:00,60.0,57.0,-100.00,East,88,10.0,-999.0,90,-99.99,,,-99.99,,2013-06-11 08:32:00,
2013-06-11 04:42:00,60.0,57.0,-100.00,East,88,10.0,-999.0,90,-99.99,,,-99.99,,2013-06-11 08:42:00,
2013-06-11 04:52:00,60.0,57.0,-100.00,East,88,10.0,-999.0,90,-99.99,,,-99.99,,2013-06-11 08:52:00,
2013-06-11 05:02:00,60.0,57.0,-100.00,East,88,10.0,-999.0,90,-99.99,,,-99.99,,2013-06-11 09:02:00,
2013-06-11 05:12:00,60.0,57.0,-100.00,East,88,10.0,-999.0,90,-99.99,,,-99.99,,2013-06-11 09:12:00,
2013-06-11 05:22:00,60.0,57.0,-100.00,ENE,74,10.0,-999.0,90,-99.99,,,-99.99,,2013-06-11 09:22:00,
2013-06-11 05:33:00,61.0,57.0,-100.00,East,80,9.0,-999.0,87,-99.99,,,-99.99,,2013-06-11 09:33:00,
2013-06-11 05:43:00,61.0,57.0,-100.00,East,80,9.0,-999.0,87,-99.99,,,-99.99,,2013-06-11 09:43:00,
2013-06-11 05:53:00,61.0,57.0,-100.00,East,80,9.0,-999.0,87,-99.99,,,-99.99,,2013-06-11 09:53:00,
2013-06-11 06:03:00,61.0,57.0,-100.00,East,80,9.0,-999.0,87,-99.99,,,-99.99,,2013-06-11 10:03:00,
2013-06-11 06:12:00,61.0,57.0,-100.00,East,80,9.0,-999.0,87,-99.99,,,-99.99,,2013-06-11 10:12:00,
2013-06-11 06:23:00,61.0,57.0,-100.00,ENE,76,8.0,-999.0,87,-99.99,,,-99.99,,2013-06-11 10:23:00,
2013-06-11 06:33:00,62.0,59.0,-100.00,East,82,7.0,-999.0,90,-99.99,,,-99.99,,2013-06-11 10:33:00,
2013-06-11 06:42:00,62.0,59.0,-100.00,East,82,7.0,-999.0,90,-99.99,,,-99.99,,2013-06-11 10:42:00,
2013-06-11 06:52:00,62.0,59.0,-100.00,East,82,7.0,-999.0,90,-99.99,,,-99.99,,2013-06-11 10:52:00,
2013-06-11 07:02:00,62.0,59.0,-100.00,East,82,7.0,-999.0,90,-99.99,,,-99.99,,2013-06-11 11:02:00,
2013-06-11 07:12:00,62.0,59.0,-100.00,East,82,7.0,-999.0,90,-99.99,,,-99.99,,2013-06-11 11:12:00,
2013-06-11 14:22:00,66.0,61.0,-100.00,NW,310,3.0,7.0,85,-99.99,,,-99.99,,2013-06-11 18:22:00,
2013-06-11 14:33:00,68.0,63.0,-100.00,WNW,290,7.0,7.0,85,-99.99,,,-99.99,,2013-06-11 18:33:00,
2013-06-11 14:43:00,68.0,63.0,-100.00,WNW,290,7.0,7.0,85,-99.99,,,-99.99,,2013-06-11 18:43:00,
2013-06-11 14:52:00,68.0,63.0,-100.00,WNW,290,7.0,7.0,85,-99.99,,,-99.99,,2013-06-11 18:52:00,
2013-06-11 15:03:00,68.0,63.0,-100.00,WNW,290,7.0,7.0,85,-99.99,,,-99.99,,2013-06-11 19:03:00,
2013-06-11 15:13:00,68.0,63.0,-100.00,WNW,290,7.0,7.0,85,-99.99,,,-99.99,,2013-06-11 19:13:00,
2013-06-11 15:22:00,68.0,63.0,-100.00,WNW,290,7.0,7.0,85,-99.99,,,-99.99,,2013-06-11 19:22:00,
2013-06-11 15:33:00,71.0,66.0,-100.00,WNW,296,7.0,7.0,85,-99.99,,,-99.99,,2013-06-11 19:33:00,
2013-06-11 15:42:00,71.0,66.0,-100.00,WNW,296,7.0,7.0,85,-99.99,,,-99.99,,2013-06-11 19:42:00,
2013-06-11 15:52:00,71.0,66.0,-100.00,WNW,296,7.0,7.0,85,-99.99,,,-99.99,,2013-06-11 19:52:00,
2013-06-11 16:03:00,71.0,66.0,-100.00,WNW,296,7.0,7.0,85,-99.99,,,-99.99,,2013-06-11 20:03:00,
2013-06-11 16:12:00,71.0,66.0,-100.00,WNW,296,7.0,7.0,85,-99.99,,,-99.99,,2013-06-11 20:12:00,
2013-06-11 16:22:00,71.0,66.0,-100.00,WNW,298,5.0,7.0,85,-99.99,,,-99.99,,2013-06-11 20:22:00,
2013-06-11 16:32:00,72.0,67.0,-100.00,WNW,296,3.0,7.0,85,-99.99,,,-99.99,,2013-06-11 20:32:00,
2013-06-11 16:42:00,72.0,67.0,-100.00,WNW,296,3.0,7.0,85,-99.99,,,-99.99,,2013-06-11 20:42:00,
2013-06-11 16:52:00,72.0,67.0,-100.00,WNW,296,3.0,7.0,85,-99.99,,,-99.99,,2013-06-11 20:52:00,
2013-06-11 17:02:00,72.0,67.0,-100.00,WNW,296,3.0,7.0,85,-99.99,,,-99.99,,2013-06-11 21:02:00,
2013-06-11 17:10:00,72.0,67.0,-100.00,NW,312,2.0,7.0,85,-99.99,,,-99.99,,2013-06-11 21:10:00,
2013-06-11 17:12:00,72.0,67.0,-100.00,WNW,296,3.0,7.0,85,-99.99,,,-99.99,,2013-06-11 21:12:00,
2013-06-11 17:22:00,72.0,67.0,-100.00,NW,318,3.0,7.0,85,-99.99,,,-99.99,,2013-06-11 21:22:00,
2013-06-11 17:33:00,72.0,67.0,-100.00,NW,312,2.0,7.0,85,-99.99,,,-99.99,,2013-06-11 21:33:00,
2013-06-11 17:42:00,72.0,67.0,-100.00,NW,312,2.0,7.0,85,-99.99,,,-99.99,,2013-06-11 21:42:00,
2013-06-11 17:53:00,72.0,67.0,-100.00,NW,312,2.0,7.0,85,-99.99,,,-99.99,,2013-06-11 21:53:00,
2013-06-11 18:03:00,72.0,67.0,-100.00,NW,312,2.0,7.0,85,-99.99,,,-99.99,,2013-06-11 22:03:00,
2013-06-11 18:22:00,72.0,67.0,-100.00,NNE,32,5.0,8.0,85,-99.99,,,-99.99,,2013-06-11 22:22:00,
2013-06-11 18:33:00,71.0,66.0,-100.00,NE,44,5.0,8.0,85,-99.99,,,-99.99,,2013-06-11 22:33:00,
2013-06-11 18:42:00,71.0,66.0,-100.00,NE,44,5.0,8.0,85,-99.99,,,-99.99,,2013-06-11 22:42:00,
2013-06-11 18:52:00,71.0,66.0,-100.00,NE,44,5.0,7.0,85,-99.99,,,-99.99,,2013-06-11 22:52:00,
2013-06-11 19:02:00,71.0,66.0,-100.00,NE,44,5.0,7.0,85,-99.99,,,-99.99,,2013-06-11 23:02:00,
2013-06-11 19:12:00,71.0,66.0,-100.00,NE,44,5.0,8.0,85,-99.99,,,-99.99,,2013-06-11 23:12:00,
2013-06-11 19:22:00,71.0,66.0,-100.00,NE,56,5.0,7.0,85,-99.99,,,-99.99,,2013-06-11 23:22:00,
2013-06-11 19:32:00,69.0,64.0,-100.00,ENE,72,3.0,12.0,85,-99.99,,,-99.99,,2013-06-11 23:32:00,
2013-06-11 19:42:00,69.0,64.0,-100.00,ENE,72,3.0,12.0,85,-99.99,,,-99.99,,2013-06-11 23:42:00,
2013-06-11 19:52:00,69.0,64.0,-100.00,ENE,72,3.0,12.0,85,-99.99,,,-99.99,,2013-06-11 23:52:00,
2013-06-11 20:02:00,69.0,64.0,-100.00,ENE,72,3.0,12.0,85,-99.99,,,-99.99,,2013-06-12 00:02:00,
2013-06-11 20:12:00,69.0,64.0,-100.00,ENE,72,3.0,12.0,85,-99.99,,,-99.99,,2013-06-12 00:12:00,
2013-06-11 20:22:00,69.0,64.0,-100.00,East,92,9.0,9.0,85,-99.99,,,-99.99,,2013-06-12 00:22:00,
2013-06-11 20:52:00,68.0,67.0,-100.00,NNE,30,6.0,15.0,97,-99.99,,,-99.99,,2013-06-12 00:52:00,
2013-06-11 21:02:00,68.0,67.0,-100.00,NNE,30,6.0,15.0,97,-99.99,,,-99.99,,2013-06-12 01:02:00,
2013-06-11 21:12:00,68.0,67.0,-100.00,NNE,30,6.0,13.0,97,-99.99,,,-99.99,,2013-06-12 01:12:00,
2013-06-11 21:22:00,68.0,67.0,-100.00,NNE,30,6.0,10.0,97,-99.99,,,-99.99,,2013-06-12 01:22:00,
2013-06-11 21:32:00,66.0,65.0,-100.00,NNE,22,6.0,7.0,97,-99.99,,,-99.99,,2013-06-12 01:32:00,
2013-06-11 21:42:00,66.0,65.0,-100.00,NNE,22,6.0,7.0,97,-99.99,,,-99.99,,2013-06-12 01:42:00,
2013-06-11 21:52:00,66.0,65.0,-100.00,NNE,22,6.0,7.0,97,-99.99,,,-99.99,,2013-06-12 01:52:00,
2013-06-11 22:02:00,66.0,65.0,-100.00,NNE,22,6.0,7.0,97,-99.99,,,-99.99,,2013-06-12 02:02:00,
2013-06-11 22:12:00,66.0,65.0,-100.00,NNE,22,6.0,7.0,97,-99.99,,,-99.99,,2013-06-12 02:12:00,
2013-06-11 22:22:00,66.0,65.0,-100.00,North,350,7.0,7.0,97,-99.99,,,-99.99,,2013-06-12 02:22:00,
2013-06-11 22:32:00,65.0,64.0,-100.00,NNW,342,7.0,7.0,97,-99.99,,,-99.99,,2013-06-12 02:32:00,
2013-06-11 22:42:00,65.0,64.0,-100.00,NNW,342,7.0,7.0,97,-99.99,,,-99.99,,2013-06-12 02:42:00,
2013-06-11 22:52:00,65.0,64.0,-100.00,NNW,342,7.0,7.0,97,-99.99,,,-99.99,,2013-06-12 02:52:00,
2013-06-11 23:02:00,65.0,64.0,-100.00,NNW,342,7.0,7.0,97,-99.99,,,-99.99,,2013-06-12 03:02:00,
2013-06-11 23:10:00,63.0,62.0,-100.00,North,4,5.0,5.0,97,-99.99,,,-99.99,,2013-06-12 03:10:00,
2013-06-11 23:22:00,65.0,64.0,-100.00,NNE,12,3.0,3.0,97,-99.99,,,-99.99,,2013-06-12 03:22:00,
2013-06-11 23:33:00,63.0,62.0,-100.00,North,4,5.0,5.0,97,-99.99,,,-99.99,,2013-06-12 03:33:00,
2013-06-11 23:43:00,63.0,62.0,-100.00,North,4,5.0,5.0,97,-99.99,,,-99.99,,2013-06-12 03:43:00,
2013-06-11 23:53:00,63.0,62.0,-100.00,North,4,5.0,5.0,97,-99.99,,,-99.99,,2013-06-12 03:53:00,